Time;durP1;ratioP1;P1;durP2;ratioP2;P2;SDS_P1;SDS_P2;PMS_P1;PMS_P2;Temp;Humidity;BMP_temperature;BMP_pressure;BME280_temperature;BME280_humidity;BME280_pressure;Samples;Min_cycle;Max_cycle;Signal;HPM_P1;HPM_P2
2022/10/26 00:41:15;;;;;;;15.23;2.93;;;;;;;;;;6278826;22;20369;-89
2022/10/26 00:43:58;;;;;;;17.43;3.20;;;;;;;;;;6230074;22;20409;-90
2022/10/26 00:46:51;;;;;;;20.50;3.43;;;;;;;;;;6220503;22;20896;-90
2022/10/26 00:49:39;;;;;;;14.43;2.33;;;;;;;;;;6232985;22;20465;-90
2022/10/26 00:52:53;;;;;;;12.37;1.93;;;;;;;;;;6221888;22;20405;-90
2022/10/26 01:06:14;;;;;;;12.43;2.20;;;;;;;;;;5972486;23;20397;-90
2022/10/26 01:12:28;;;;;;;16.60;2.20;;;;;;;;;;5927080;24;20363;-90
2022/10/26 01:15:01;;;;;;;13.00;2.30;;;;;;;;;;5904769;24;20810;-90
2022/10/26 01:18:11;;;;;;;17.40;2.20;;;;;;;;;;5905961;24;20495;-90
2022/10/26 01:25:08;;;;;;;22.63;2.43;;;;;;;;;;5925508;24;20761;-90
2022/10/26 01:27:49;;;;;;;22.80;2.80;;;;;;;;;;5972210;23;20414;-90
2022/10/26 01:37:18;;;;;;;14.00;1.83;;;;;;;;;;5831269;24;20402;-89
2022/10/26 01:39:54;;;;;;;13.30;1.90;;;;;;;;;;5824075;24;20906;-90
2022/10/26 01:42:22;;;;;;;11.63;1.90;;;;;;;;;;5910513;24;20419;-89
2022/10/26 01:44:52;;;;;;;13.70;2.77;;;;;;;;;;5916193;23;20500;-89
2022/10/26 01:47:26;;;;;;;10.50;2.13;;;;;;;;;;5992574;23;20413;-89
2022/10/26 01:50:13;;;;;;;14.93;3.03;;;;;;;;;;6018495;23;20882;-89
2022/10/26 01:52:49;;;;;;;11.30;1.90;;;;;;;;;;5991978;23;20472;-90
2022/10/26 01:55:31;;;;;;;13.87;1.90;;;;;;;;;;6014813;23;20432;-89
2022/10/26 01:58:12;;;;;;;13.57;2.90;;;;;;;;;;6014536;23;20408;-90
2022/10/26 02:00:39;;;;;;;16.23;2.10;;;;;;;;;;5991315;23;20409;-89
2022/10/26 02:03:22;;;;;;;11.50;2.57;;;;;;;;;;5991590;23;20920;-89
2022/10/26 02:06:11;;;;;;;12.07;2.40;;;;;;;;;;5991624;23;20410;-89
2022/10/26 02:08:42;;;;;;;7.27;1.50;;;;;;;;;;6113044;23;20468;-89
2022/10/26 02:11:20;;;;;;;14.03;1.77;;;;;;;;;;6187796;23;20413;-89
2022/10/26 02:13:52;;;;;;;20.70;3.20;;;;;;;;;;6221008;23;20970;-89
2022/10/26 02:16:57;;;;;;;12.83;2.10;;;;;;;;;;6246898;23;20501;-89
2022/10/26 02:19:37;;;;;;;20.33;3.10;;;;;;;;;;6071988;23;20418;-90
2022/10/26 02:22:14;;;;;;;16.00;2.00;;;;;;;;;;6071886;23;20418;-90
2022/10/26 02:24:41;;;;;;;13.30;2.00;;;;;;;;;;6064728;23;20460;-89
2022/10/26 02:27:10;;;;;;;13.67;2.33;;;;;;;;;;6129825;23;20488;-90
2022/10/26 02:29:38;;;;;;;17.40;2.20;;;;;;;;;;6105370;23;20475;-90
2022/10/26 02:32:05;;;;;;;10.63;1.70;;;;;;;;;;6105404;23;20409;-89
2022/10/26 02:34:32;;;;;;;10.63;1.83;;;;;;;;;;6105637;23;20521;-90
2022/10/26 02:37:02;;;;;;;17.67;1.80;;;;;;;;;;6129710;23;20410;-90
2022/10/26 02:39:31;;;;;;;10.00;1.50;;;;;;;;;;6105791;23;20393;-89
2022/10/26 02:42:02;;;;;;;12.33;1.93;;;;;;;;;;6106293;23;20385;-89
2022/10/26 02:44:34;;;;;;;15.83;2.90;;;;;;;;;;6105619;23;20437;-90
2022/10/26 02:47:01;;;;;;;11.20;2.37;;;;;;;;;;6178088;23;20513;-90
2022/10/26 02:49:31;;;;;;;11.83;2.13;;;;;;;;;;6129564;23;20518;-89
2022/10/26 02:52:12;;;;;;;12.13;2.83;;;;;;;;;;6105743;23;20501;-90
2022/10/26 02:54:58;;;;;;;20.80;2.53;;;;;;;;;;6245136;22;20368;-89
2022/10/26 02:57:40;;;;;;;16.90;2.27;;;;;;;;;;6219219;23;20403;-89
2022/10/26 03:00:18;;;;;;;13.70;2.57;;;;;;;;;;6195895;23;20542;-90
2022/10/26 03:02:50;;;;;;;17.20;2.00;;;;;;;;;;6220611;23;20391;-90
2022/10/26 03:05:24;;;;;;;18.87;3.67;;;;;;;;;;6195367;23;20402;-89
2022/10/26 03:07:53;;;;;;;12.17;3.00;;;;;;;;;;6219561;23;20490;-90
2022/10/26 03:10:21;;;;;;;21.10;3.43;;;;;;;;;;6219903;23;20441;-89
2022/10/26 03:12:48;;;;;;;12.13;2.50;;;;;;;;;;6195746;23;20936;-90
2022/10/26 03:15:16;;;;;;;10.17;3.23;;;;;;;;;;6219892;23;20423;-90
2022/10/26 03:17:43;;;;;;;12.97;3.20;;;;;;;;;;6196609;23;20390;-89
2022/10/26 03:20:11;;;;;;;20.57;3.77;;;;;;;;;;6197067;23;20456;-90
2022/10/26 03:22:38;;;;;;;10.33;3.13;;;;;;;;;;6196851;23;20486;-90
2022/10/26 03:25:06;;;;;;;11.90;3.20;;;;;;;;;;6236536;22;20919;-90
2022/10/26 03:27:36;;;;;;;12.33;2.67;;;;;;;;;;6166656;23;20427;-90
2022/10/26 03:30:04;;;;;;;21.63;3.67;;;;;;;;;;6190902;23;20495;-89
2022/10/26 03:32:33;;;;;;;18.33;3.20;;;;;;;;;;6190810;23;20426;-90
2022/10/26 03:35:01;;;;;;;16.90;3.47;;;;;;;;;;6215273;23;20400;-89
2022/10/26 03:37:30;;;;;;;14.53;3.70;;;;;;;;;;6191013;23;20430;-89
2022/10/26 03:39:59;;;;;;;15.80;5.17;;;;;;;;;;6166668;23;20422;-89
2022/10/26 03:42:32;;;;;;;20.83;6.63;;;;;;;;;;6215506;23;20399;-89
2022/10/26 03:44:59;;;;;;;17.73;5.13;;;;;;;;;;6178991;22;20432;-88
2022/10/26 03:47:27;;;;;;;19.03;5.87;;;;;;;;;;6252056;22;20481;-89
2022/10/26 03:49:54;;;;;;;20.73;5.17;;;;;;;;;;6252158;22;20513;-90
2022/10/26 03:52:23;;;;;;;11.03;4.63;;;;;;;;;;6252512;22;20398;-89
2022/10/26 03:54:50;;;;;;;13.63;3.73;;;;;;;;;;6252269;22;20453;-90
2022/10/26 03:57:20;;;;;;;17.83;4.67;;;;;;;;;;6277239;22;20964;-89
2022/10/26 03:59:47;;;;;;;16.30;4.77;;;;;;;;;;6252586;22;20381;-89
2022/10/26 04:02:16;;;;;;;13.70;4.37;;;;;;;;;;6251923;22;20448;-89
2022/10/26 04:04:43;;;;;;;12.57;5.17;;;;;;;;;;6278925;22;20405;-89
2022/10/26 04:07:11;;;;;;;12.70;4.27;;;;;;;;;;6252775;22;20671;-88
2022/10/26 04:09:38;;;;;;;20.80;4.20;;;;;;;;;;6277008;22;20527;-89
2022/10/26 04:12:07;;;;;;;16.70;4.90;;;;;;;;;;6252246;22;20771;-89
2022/10/26 04:14:35;;;;;;;14.17;4.80;;;;;;;;;;6252007;22;20484;-88
2022/10/26 04:17:02;;;;;;;15.00;4.30;;;;;;;;;;6252109;22;20425;-89
2022/10/26 04:19:29;;;;;;;17.97;2.70;;;;;;;;;;6277390;22;20712;-90
2022/10/26 04:22:04;;;;;;;10.37;3.67;;;;;;;;;;6252898;22;20505;-90
2022/10/26 04:24:31;;;;;;;15.03;3.07;;;;;;;;;;6251101;22;20428;-89
2022/10/26 04:26:58;;;;;;;15.23;3.70;;;;;;;;;;6251659;22;20402;-89
2022/10/26 04:29:25;;;;;;;10.73;3.20;;;;;;;;;;6251140;22;20441;-90
2022/10/26 04:31:53;;;;;;;15.90;4.30;;;;;;;;;;6252371;22;20389;-89
2022/10/26 04:34:20;;;;;;;16.77;2.93;;;;;;;;;;6251812;22;20684;-89
2022/10/26 04:36:49;;;;;;;18.37;3.57;;;;;;;;;;6251913;22;20795;-90
2022/10/26 04:39:16;;;;;;;12.40;3.63;;;;;;;;;;6278038;22;20480;-90
2022/10/26 04:41:44;;;;;;;12.87;3.67;;;;;;;;;;6251858;22;20915;-89
2022/10/26 04:44:11;;;;;;;13.33;3.40;;;;;;;;;;6277255;22;20444;-89
2022/10/26 04:46:39;;;;;;;13.10;3.33;;;;;;;;;;6277053;22;20441;-89
2022/10/26 04:49:09;;;;;;;10.90;3.50;;;;;;;;;;6276260;22;20404;-89
2022/10/26 04:51:37;;;;;;;18.57;4.37;;;;;;;;;;6251888;22;20814;-90
2022/10/26 04:54:05;;;;;;;11.20;4.60;;;;;;;;;;6251877;22;20979;-90
2022/10/26 04:56:33;;;;;;;12.30;5.00;;;;;;;;;;6251638;22;20477;-90
2022/10/26 04:59:02;;;;;;;19.07;5.90;;;;;;;;;;6252392;22;20693;-90
2022/10/26 05:01:35;;;;;;;17.93;4.90;;;;;;;;;;6251714;22;20504;-90
2022/10/26 05:04:11;;;;;;;22.20;5.00;;;;;;;;;;6251852;22;20459;-89
2022/10/26 05:06:42;;;;;;;15.20;5.10;;;;;;;;;;6276274;22;20455;-90
2022/10/26 05:09:10;;;;;;;26.10;6.30;;;;;;;;;;6252007;22;20429;-90
2022/10/26 05:11:39;;;;;;;22.53;6.07;;;;;;;;;;6251513;22;20406;-90
2022/10/26 05:14:08;;;;;;;11.67;4.30;;;;;;;;;;6250995;22;20441;-90
2022/10/26 05:16:36;;;;;;;15.83;4.00;;;;;;;;;;6252259;22;20486;-90
2022/10/26 05:19:06;;;;;;;8.97;3.50;;;;;;;;;;6252510;22;20713;-90
2022/10/26 05:21:46;;;;;;;18.27;4.50;;;;;;;;;;6251532;22;20406;-90
2022/10/26 05:24:14;;;;;;;11.23;3.33;;;;;;;;;;6250574;22;20446;-90
2022/10/26 05:30:03;;;;;;;11.43;2.53;;;;;;;;;;6277836;22;20437;-92
2022/10/26 05:32:49;;;;;;;;;;;;;;;;;;;;;
2022/10/26 05:35:39;;;;;;;19.27;2.23;;;;;;;;;;6254198;22;20784;-92
2022/10/26 05:38:09;;;;;;;16.03;2.80;;;;;;;;;;6227125;22;20467;-92
2022/10/26 05:40:49;;;;;;;14.03;3.03;;;;;;;;;;6226222;22;20398;-92
2022/10/26 05:43:27;;;;;;;15.33;2.17;;;;;;;;;;6226718;22;20370;-93
2022/10/26 05:45:55;;;;;;;9.10;2.07;;;;;;;;;;6225987;22;20406;-93
2022/10/26 05:48:23;;;;;;;10.83;2.10;;;;;;;;;;6250910;22;20492;-93
2022/10/26 05:51:00;;;;;;;26.10;3.77;;;;;;;;;;6226265;22;20438;-92
2022/10/26 05:53:57;;;;;;;10.00;3.00;;;;;;;;;;6226813;22;20394;-93
2022/10/26 05:56:51;;;;;;;17.10;3.10;;;;;;;;;;6230772;22;20406;-92
2022/10/26 05:59:21;;;;;;;17.37;3.20;;;;;;;;;;6127723;23;20409;-92
2022/10/26 06:02:15;;;;;;;19.93;3.40;;;;;;;;;;6130291;23;20389;-90
2022/10/26 06:04:46;;;;;;;7.23;2.53;;;;;;;;;;6154771;23;20463;-90
2022/10/26 06:07:15;;;;;;;9.50;3.60;;;;;;;;;;6130482;23;20441;-90
2022/10/26 06:09:44;;;;;;;14.27;3.53;;;;;;;;;;6105989;23;20425;-90
2022/10/26 06:12:35;;;;;;;17.50;4.17;;;;;;;;;;6106468;23;20460;-91
2022/10/26 06:15:16;;;;;;;13.87;3.87;;;;;;;;;;6153948;23;20888;-90
2022/10/26 06:17:52;;;;;;;13.40;4.60;;;;;;;;;;6130614;23;20390;-90
2022/10/26 06:20:31;;;;;;;19.07;5.20;;;;;;;;;;6130985;23;20946;-90
2022/10/26 06:23:00;;;;;;;23.33;5.90;;;;;;;;;;6130221;23;20413;-89
2022/10/26 06:25:37;;;;;;;14.40;5.60;;;;;;;;;;6162584;23;20433;-90
2022/10/26 06:28:33;;;;;;;14.57;4.90;;;;;;;;;;6153932;23;20409;-90
2022/10/26 06:31:01;;;;;;;16.13;4.73;;;;;;;;;;6103028;23;20439;-90
2022/10/26 06:33:29;;;;;;;14.77;5.53;;;;;;;;;;6105944;23;20464;-89
2022/10/26 06:36:06;;;;;;;14.73;5.70;;;;;;;;;;6137120;23;20739;-91
2022/10/26 06:38:35;;;;;;;22.70;5.90;;;;;;;;;;6239089;22;20453;-90
2022/10/26 06:41:07;;;;;;;16.20;4.77;;;;;;;;;;6225755;22;20402;-91
2022/10/26 06:43:49;;;;;;;12.97;4.70;;;;;;;;;;6227195;22;20406;-90
2022/10/26 06:46:38;;;;;;;16.50;6.00;;;;;;;;;;6251168;22;20946;-90
2022/10/26 06:49:23;;;;;;;13.97;5.87;;;;;;;;;;6277360;22;20425;-90
2022/10/26 06:51:58;;;;;;;21.53;7.37;;;;;;;;;;6250465;22;20437;-90
2022/10/26 06:54:31;;;;;;;24.13;6.63;;;;;;;;;;6225679;22;20415;-90
2022/10/26 06:57:01;;;;;;;18.07;6.13;;;;;;;;;;6250844;22;20710;-90
2022/10/26 06:59:29;;;;;;;17.50;6.57;;;;;;;;;;6249341;22;20424;-90
2022/10/26 07:01:56;;;;;;;16.20;6.87;;;;;;;;;;6276351;22;20413;-90
2022/10/26 07:05:09;;;;;;;19.40;6.30;;;;;;;;;;6227075;22;20391;-90
2022/10/26 07:07:52;;;;;;;14.97;7.30;;;;;;;;;;6253137;22;20408;-90
2022/10/26 07:10:33;;;;;;;13.57;5.50;;;;;;;;;;6230857;22;20500;-90
2022/10/26 07:13:02;;;;;;;19.73;7.40;;;;;;;;;;6226229;22;20501;-90
2022/10/26 07:15:33;;;;;;;20.03;6.57;;;;;;;;;;6225835;22;20436;-90
2022/10/26 07:18:09;;;;;;;13.60;6.80;;;;;;;;;;6225449;22;20419;-90
2022/10/26 07:24:00;;;;;;;17.83;6.93;;;;;;;;;;6277914;22;20369;-94
2022/10/26 08:14:10;;;;;;;22.67;5.17;;;;;;;;;;6278461;22;20400;-89
2022/10/26 08:16:39;;;;;;;12.83;5.80;;;;;;;;;;6277247;22;20837;-86
2022/10/26 08:19:06;;;;;;;12.80;4.60;;;;;;;;;;6277150;22;20413;-85
2022/10/26 08:21:34;;;;;;;13.57;5.87;;;;;;;;;;6251672;22;20390;-84
2022/10/26 08:24:06;;;;;;;18.60;6.07;;;;;;;;;;6276595;22;20412;-87
2022/10/26 08:26:33;;;;;;;21.73;5.03;;;;;;;;;;6278129;22;20436;-84
2022/10/26 08:29:01;;;;;;;20.63;5.47;;;;;;;;;;6278204;22;20398;-89
2022/10/26 08:31:47;;;;;;;13.30;3.97;;;;;;;;;;6276816;22;20437;-87
2022/10/26 08:34:14;;;;;;;15.83;3.30;;;;;;;;;;6251643;22;20444;-90
2022/10/26 08:36:42;;;;;;;12.40;3.50;;;;;;;;;;6251701;22;20440;-89
2022/10/26 08:39:09;;;;;;;8.63;2.87;;;;;;;;;;6251412;22;20468;-89
2022/10/26 08:41:44;;;;;;;11.33;2.80;;;;;;;;;;6277303;22;20394;-90
2022/10/26 08:44:26;;;;;;;12.93;2.70;;;;;;;;;;6252234;22;20405;-89
2022/10/26 08:46:57;;;;;;;12.00;2.73;;;;;;;;;;6252111;22;20393;-88
2022/10/26 08:50:00;;;;;;;8.53;2.80;;;;;;;;;;6251257;22;20453;-89
2022/10/26 08:52:29;;;;;;;15.40;3.43;;;;;;;;;;6160152;23;20462;-89
2022/10/26 08:54:56;;;;;;;14.43;3.00;;;;;;;;;;6160511;23;20397;-89
2022/10/26 08:57:26;;;;;;;13.53;3.27;;;;;;;;;;6160321;23;20459;-89
2022/10/26 08:59:58;;;;;;;9.80;2.50;;;;;;;;;;6159331;23;20436;-89
2022/10/26 09:02:25;;;;;;;10.50;3.10;;;;;;;;;;6135795;23;20397;-89
2022/10/26 09:04:53;;;;;;;12.40;3.00;;;;;;;;;;6159994;23;20784;-89
2022/10/26 09:07:38;;;;;;;9.70;3.10;;;;;;;;;;6136005;23;20388;-89
2022/10/26 09:10:05;;;;;;;7.80;2.93;;;;;;;;;;6160088;23;20407;-89
2022/10/26 09:12:51;;;;;;;12.07;4.07;;;;;;;;;;6184406;23;20491;-89
2022/10/26 09:15:24;;;;;;;8.63;2.20;;;;;;;;;;6184545;23;20397;-89
2022/10/26 09:17:55;;;;;;;24.97;3.20;;;;;;;;;;6135467;23;20483;-89
2022/10/26 09:20:37;;;;;;;12.23;2.70;;;;;;;;;;6160357;23;20702;-89
2022/10/26 09:23:09;;;;;;;8.40;2.70;;;;;;;;;;6184538;23;20408;-89
2022/10/26 09:25:40;;;;;;;9.90;2.67;;;;;;;;;;6148349;22;20417;-89
2022/10/26 09:28:15;;;;;;;8.23;2.83;;;;;;;;;;6251273;22;20485;-89
2022/10/26 09:30:45;;;;;;;6.00;2.17;;;;;;;;;;6251100;22;20437;-89
2022/10/26 09:33:18;;;;;;;11.23;2.50;;;;;;;;;;6251065;22;20398;-89
2022/10/26 09:35:48;;;;;;;14.63;2.73;;;;;;;;;;6278363;22;20759;-89
2022/10/26 09:38:19;;;;;;;9.70;2.17;;;;;;;;;;6251239;22;20708;-89
2022/10/26 09:40:46;;;;;;;14.50;3.13;;;;;;;;;;6250574;22;20402;-89
2022/10/26 09:43:17;;;;;;;7.17;1.73;;;;;;;;;;6276966;22;20832;-89
2022/10/26 09:45:46;;;;;;;14.90;2.40;;;;;;;;;;6250589;22;20471;-89
2022/10/26 09:48:15;;;;;;;14.87;2.40;;;;;;;;;;6250823;22;20480;-89
2022/10/26 09:50:43;;;;;;;21.30;2.27;;;;;;;;;;6251461;22;20437;-90
2022/10/26 09:53:11;;;;;;;11.67;2.10;;;;;;;;;;6250720;22;20405;-89
2022/10/26 09:55:40;;;;;;;10.93;2.60;;;;;;;;;;6251420;22;20453;-89
2022/10/26 09:58:15;;;;;;;10.10;2.43;;;;;;;;;;6251270;22;20440;-89
2022/10/26 10:00:43;;;;;;;9.47;2.43;;;;;;;;;;6251086;22;20452;-89
2022/10/26 10:03:20;;;;;;;9.83;1.83;;;;;;;;;;6250696;22;20413;-89
2022/10/26 10:05:48;;;;;;;12.20;2.93;;;;;;;;;;6250866;22;20489;-89
2022/10/26 10:08:20;;;;;;;9.67;2.10;;;;;;;;;;6251421;22;20893;-89
2022/10/26 10:11:06;;;;;;;12.70;2.03;;;;;;;;;;6250579;22;20429;-89
2022/10/26 10:13:41;;;;;;;8.20;2.00;;;;;;;;;;6276157;22;20731;-89
2022/10/26 10:16:24;;;;;;;9.13;1.90;;;;;;;;;;6251299;22;20468;-90
2022/10/26 10:18:57;;;;;;;8.97;1.77;;;;;;;;;;6250813;22;20382;-89
2022/10/26 10:21:34;;;;;;;11.47;2.20;;;;;;;;;;6250610;22;20422;-89
2022/10/26 10:24:02;;;;;;;10.53;2.30;;;;;;;;;;6277455;22;20378;-89
2022/10/26 10:26:30;;;;;;;9.37;1.90;;;;;;;;;;6250685;22;20806;-89
2022/10/26 10:28:58;;;;;;;7.37;1.90;;;;;;;;;;6250651;22;20464;-89
2022/10/26 10:45:52;;;;;;;11.17;1.83;;;;;;;;;;6277402;22;20742;-90
2022/10/26 10:48:25;;;;;;;12.93;2.10;;;;;;;;;;6275860;22;20393;-90
2022/10/26 10:51:03;;;;;;;10.37;2.03;;;;;;;;;;6250521;22;20440;-89
2022/10/26 10:54:02;;;;;;;16.13;2.40;;;;;;;;;;6251278;22;20385;-90
2022/10/26 10:56:38;;;;;;;13.13;2.10;;;;;;;;;;6276187;22;20459;-89
2022/10/26 10:59:35;;;;;;;30.80;2.70;;;;;;;;;;6275903;22;20397;-89
2022/10/26 11:02:09;;;;;;;19.00;3.07;;;;;;;;;;6250779;22;20444;-89
2022/10/26 11:04:57;;;;;;;14.47;2.30;;;;;;;;;;6275674;22;20405;-89
2022/10/26 11:07:25;;;;;;;15.43;2.90;;;;;;;;;;6275666;22;20401;-89
2022/10/26 11:09:52;;;;;;;13.40;2.20;;;;;;;;;;6277520;22;20432;-90
2022/10/26 11:12:28;;;;;;;15.93;2.37;;;;;;;;;;6250671;22;20984;-89
2022/10/26 11:15:15;;;;;;;7.30;2.40;;;;;;;;;;6275763;22;20400;-89
2022/10/26 11:18:03;;;;;;;10.83;2.23;;;;;;;;;;6274176;22;20405;-89
2022/10/26 11:20:33;;;;;;;15.83;2.67;;;;;;;;;;6276186;22;20382;-89
2022/10/26 11:23:16;;;;;;;19.20;2.43;;;;;;;;;;6250182;22;20888;-89
2022/10/26 11:26:05;;;;;;;10.50;1.90;;;;;;;;;;6274818;22;20425;-90
2022/10/26 11:28:47;;;;;;;13.03;2.20;;;;;;;;;;6277330;22;20436;-90
2022/10/26 11:31:22;;;;;;;11.30;2.63;;;;;;;;;;6275319;22;20846;-89
2022/10/26 11:34:00;;;;;;;10.20;2.57;;;;;;;;;;6250298;22;20472;-89
2022/10/26 11:36:29;;;;;;;14.00;3.17;;;;;;;;;;6250565;22;20416;-89
2022/10/26 11:39:05;;;;;;;23.67;4.93;;;;;;;;;;6251445;22;20388;-89
2022/10/26 11:41:40;;;;;;;10.50;2.90;;;;;;;;;;6277217;22;20399;-89
2022/10/26 11:44:28;;;;;;;10.20;3.80;;;;;;;;;;6252119;22;20429;-89
2022/10/26 11:47:22;;;;;;;20.73;3.93;;;;;;;;;;6252890;22;20464;-89
2022/10/26 11:50:04;;;;;;;9.50;3.00;;;;;;;;;;6271482;22;20405;-90
2022/10/26 11:52:32;;;;;;;9.50;3.40;;;;;;;;;;6277090;22;20469;-90
2022/10/26 11:55:01;;;;;;;19.20;4.07;;;;;;;;;;6277134;22;20405;-90
2022/10/26 11:57:31;;;;;;;13.03;3.90;;;;;;;;;;6252932;22;20374;-90
2022/10/26 12:00:06;;;;;;;18.93;4.10;;;;;;;;;;6251999;22;20397;-90
2022/10/26 12:02:38;;;;;;;11.57;3.23;;;;;;;;;;6252347;22;20404;-89
2022/10/26 12:05:08;;;;;;;12.97;3.47;;;;;;;;;;6252021;22;20426;-89
2022/10/26 12:07:38;;;;;;;12.90;4.20;;;;;;;;;;6252008;22;20406;-89
2022/10/26 12:10:09;;;;;;;16.20;4.90;;;;;;;;;;6277561;22;20398;-90
2022/10/26 12:12:45;;;;;;;20.43;3.83;;;;;;;;;;6252508;22;20472;-90
2022/10/26 12:15:32;;;;;;;21.63;4.50;;;;;;;;;;6277023;22;20409;-90
2022/10/26 12:18:18;;;;;;;13.50;4.50;;;;;;;;;;6277601;22;20401;-90
2022/10/26 12:21:06;;;;;;;15.10;4.40;;;;;;;;;;6277743;22;20390;-90
2022/10/26 12:23:37;;;;;;;19.57;5.07;;;;;;;;;;6252284;22;20382;-89
2022/10/26 12:26:23;;;;;;;14.50;5.03;;;;;;;;;;6254718;22;20432;-89
2022/10/26 12:29:04;;;;;;;14.00;5.07;;;;;;;;;;6277600;22;20375;-90
2022/10/26 12:31:35;;;;;;;30.40;5.13;;;;;;;;;;6277622;22;20430;-90
2022/10/26 12:34:03;;;;;;;15.83;4.87;;;;;;;;;;6277496;22;20362;-89
2022/10/26 12:36:49;;;;;;;18.87;5.10;;;;;;;;;;6277171;22;20404;-90
2022/10/26 12:39:37;;;;;;;14.93;5.83;;;;;;;;;;6251588;22;20783;-89
2022/10/26 12:42:06;;;;;;;16.00;5.03;;;;;;;;;;6276909;22;20401;-89
2022/10/26 12:44:40;;;;;;;19.80;5.63;;;;;;;;;;6277487;22;20876;-90
2022/10/26 12:47:08;;;;;;;18.67;6.23;;;;;;;;;;6252565;22;20398;-90
2022/10/26 12:52:47;;;;;;;26.30;5.63;;;;;;;;;;6278638;22;20463;-90
2022/10/26 12:55:22;;;;;;;27.23;6.00;;;;;;;;;;6275805;22;20406;-90
2022/10/26 12:57:52;;;;;;;21.50;5.20;;;;;;;;;;6278307;22;20405;-89
2022/10/26 16:14:05;;;;;;;21.53;4.30;;;;;;;;;;6327623;22;20736;-89
2022/10/26 16:16:52;;;;;;;24.00;5.33;;;;;;;;;;6226733;22;20429;-88
2022/10/26 16:22:54;;;;;;;23.00;4.93;;;;;;;;;;6125698;23;20442;-89
2022/10/26 16:25:23;;;;;;;29.80;5.60;;;;;;;;;;6125550;23;20414;-89
2022/10/26 16:27:51;;;;;;;22.40;4.70;;;;;;;;;;6077929;23;20414;-89
2022/10/26 16:30:18;;;;;;;28.43;4.90;;;;;;;;;;6105911;23;20912;-89
2022/10/26 16:32:46;;;;;;;30.97;6.20;;;;;;;;;;6103643;23;20968;-89
2022/10/26 16:35:17;;;;;;;32.47;5.50;;;;;;;;;;6107998;23;20464;-90
2022/10/26 17:52:55;;;;;;;34.23;7.47;;;;;;;;;;6277620;22;20464;-89
2022/10/26 18:02:50;;;;;;;26.27;6.27;;;;;;;;;;6148711;23;20422;-89
2022/10/26 18:05:31;;;;;;;26.37;6.30;;;;;;;;;;6154352;23;20401;-90
2022/10/26 18:08:28;;;;;;;;;;;;;;;;;;;;;
2022/10/26 18:25:23;;;;;;;34.03;9.00;;;;;;;;;;6273099;22;20474;-90
2022/10/26 18:45:22;;;;;;;24.87;8.73;;;;;;;;;;5818340;24;20469;-90
2022/10/26 19:01:47;;;;;;;45.90;10.40;;;;;;;;;;5765452;24;20483;-89
2022/10/26 19:18:50;;;;;;;41.83;12.80;;;;;;;;;;5846540;24;20398;-89
2022/10/26 19:21:51;;;;;;;35.60;10.63;;;;;;;;;;5849180;24;20431;-89
2022/10/26 19:34:37;;;;;;;32.03;6.50;;;;;;;;;;5872017;24;20475;-90
2022/10/26 19:37:37;;;;;;;30.87;7.20;;;;;;;;;;5872175;24;20436;-90
2022/10/26 19:40:24;;;;;;;23.37;6.73;;;;;;;;;;5849296;24;20418;-90
2022/10/26 19:43:33;;;;;;;;;;;;;;;;;;;;;
2022/10/26 19:53:20;;;;;;;22.87;6.30;;;;;;;;;;6009666;23;20478;-90
2022/10/26 19:59:32;;;;;;;29.93;6.90;;;;;;;;;;6009914;23;20515;-90
2022/10/26 20:02:26;;;;;;;24.40;7.03;;;;;;;;;;6078503;23;20629;-90
2022/10/26 20:05:34;;;;;;;25.33;7.00;;;;;;;;;;6039251;23;20387;-90
2022/10/26 20:08:41;;;;;;;38.70;6.97;;;;;;;;;;6042344;23;20409;-90
2022/10/26 20:11:51;;;;;;;;;;;;;;;;;;;;;
2022/10/26 20:14:59;;;;;;;26.73;6.80;;;;;;;;;;5948276;24;20411;-91
2022/10/26 20:17:49;;;;;;;28.93;7.70;;;;;;;;;;5954698;24;20749;-91
2022/10/26 20:28:28;;;;;;;;;;;;;;;;;;;;;
2022/10/26 20:34:11;;;;;;;23.57;5.70;;;;;;;;;;5954659;24;20524;-90
2022/10/26 20:47:13;;;;;;;32.50;8.00;;;;;;;;;;5845418;24;20400;-90
2022/10/26 20:50:28;;;;;;;22.30;7.87;;;;;;;;;;5823272;24;20411;-90
2022/10/26 20:56:14;;;;;;;25.37;5.97;;;;;;;;;;5823457;24;20403;-90
2022/10/26 20:59:07;;;;;;;27.20;6.40;;;;;;;;;;5800390;24;20446;-90
2022/10/26 21:04:47;;;;;;;25.53;6.03;;;;;;;;;;5818642;24;20387;-90
2022/10/26 21:14:34;;;;;;;24.17;5.77;;;;;;;;;;5749556;24;20410;-91
2022/10/26 21:17:42;;;;;;;23.33;5.53;;;;;;;;;;5863993;24;20396;-90
2022/10/26 21:30:07;;;;;;;31.47;6.10;;;;;;;;;;5818878;24;20442;-90
2022/10/26 21:53:50;;;;;;;25.90;5.77;;;;;;;;;;6095491;23;20371;-89
2022/10/26 22:38:51;;;;;;;17.90;5.47;;;;;;;;;;6094913;23;20776;-89
2022/10/26 22:41:44;;;;;;;21.13;5.40;;;;;;;;;;6070754;23;20393;-89
2022/10/26 22:48:16;;;;;;;28.57;5.83;;;;;;;;;;6068332;23;20406;-90
2022/10/26 22:51:08;;;;;;;28.97;6.20;;;;;;;;;;6071851;23;20494;-89
2022/10/26 22:54:10;;;;;;;33.93;7.70;;;;;;;;;;6076060;23;20426;-90
2022/10/26 22:57:35;;;;;;;27.13;5.90;;;;;;;;;;6076922;23;20437;-89
2022/10/26 23:00:57;;;;;;;;;;;;;;;;;;;;;
2022/10/26 23:08:05;;;;;;;18.73;5.63;;;;;;;;;;5896722;24;20989;-90
2022/10/26 23:11:35;;;;;;;;;;;;;;;;;;;;;
2022/10/26 23:14:34;;;;;;;27.00;5.70;;;;;;;;;;6036558;23;20503;-89
2022/10/26 23:18:18;;;;;;;;;;;;;;;;;;;;;
2022/10/26 23:21:17;;;;;;;30.33;6.10;;;;;;;;;;6037152;23;20492;-89
2022/10/26 23:39:03;;;;;;;;;;;;;;;;;;;;;
2022/10/26 23:42:21;;;;;;;;;;;;;;;;;;;;;
2022/10/26 23:46:09;;;;;;;;;;;;;;;;;;;;;
2022/10/26 23:52:44;;;;;;;20.70;5.40;;;;;;;;;;5927160;24;20460;-90
2022/10/26 23:56:00;;;;;;;19.30;5.67;;;;;;;;;;5965222;24;20454;-90
2022/10/26 23:59:20;;;;;;;26.60;6.53;;;;;;;;;;5981096;24;20487;-89
